createdAt,value
2023-05-05T00:00:08.182Z,96517.44
2023-05-05T00:02:34.694Z,96510.44
2023-05-05T00:05:02.196Z,96505.69
2023-05-05T00:07:28.502Z,96511.66
2023-05-05T00:09:54.820Z,96504.63
2023-05-05T00:12:21.121Z,96508.69
2023-05-05T00:14:47.419Z,96504.28
2023-05-05T00:17:13.816Z,96502.91
2023-05-05T00:19:40.155Z,96510.72
2023-05-05T00:22:06.456Z,96509.66
2023-05-05T00:24:32.789Z,96511.03
2023-05-05T00:26:59.091Z,96499.16
2023-05-05T00:29:25.397Z,96499.63
2023-05-05T00:31:51.729Z,96506.06
2023-05-05T00:34:18.072Z,96505.41
2023-05-05T00:36:44.359Z,96505.09
2023-05-05T00:39:10.670Z,96503.22
2023-05-05T00:41:36.970Z,96500.72
2023-05-05T00:44:03.280Z,96502.13
2023-05-05T00:46:29.711Z,96507.03
2023-05-05T00:48:56.144Z,96494.69
2023-05-05T00:51:22.497Z,96504.84
2023-05-05T00:53:48.861Z,96498.91
2023-05-05T00:56:15.154Z,96500.94
2023-05-05T00:58:41.459Z,96492.34
2023-05-05T01:01:07.833Z,96499.06
2023-05-05T01:03:34.320Z,96489.19
2023-05-05T01:06:00.720Z,96485.44
2023-05-05T01:08:28.322Z,96491.97
2023-05-05T01:10:54.651Z,96488.53
2023-05-05T01:13:20.945Z,96486.19
2023-05-05T01:15:47.274Z,96482.41
2023-05-05T01:18:13.571Z,96489.78
2023-05-05T01:20:39.875Z,96481.13
2023-05-05T01:23:06.208Z,96479.44
2023-05-05T01:25:32.512Z,96481.47
2023-05-05T01:27:58.817Z,96493.38
2023-05-05T01:30:25.130Z,96492.97
2023-05-05T01:32:51.491Z,96496.69
2023-05-05T01:35:18.001Z,96489.66
2023-05-05T01:37:44.311Z,96489.03
2023-05-05T01:40:10.611Z,96493.91
2023-05-05T01:42:36.919Z,96493.72
2023-05-05T01:45:03.253Z,96489.66
2023-05-05T01:47:29.574Z,96487.00
2023-05-05T01:49:55.902Z,96483.88
2023-05-05T01:52:22.221Z,96482.63
2023-05-05T01:54:48.515Z,96484.50
2023-05-05T01:57:14.816Z,96496.53
2023-05-05T01:59:41.161Z,96486.72
2023-05-05T02:02:07.506Z,96484.81
2023-05-05T02:04:33.899Z,96489.50
2023-05-05T02:07:00.332Z,96483.38
2023-05-05T02:09:26.622Z,96489.19
2023-05-05T02:11:52.927Z,96484.50
2023-05-05T02:14:19.284Z,96487.97
2023-05-05T02:16:45.583Z,96490.63
2023-05-05T02:19:11.883Z,96490.91
2023-05-05T02:21:38.203Z,96493.44
2023-05-05T02:24:04.757Z,96487.94
2023-05-05T02:26:31.055Z,96496.41
2023-05-05T02:28:57.374Z,96484.03
2023-05-05T02:31:23.727Z,96480.91
2023-05-05T02:33:50.065Z,96476.69
2023-05-05T02:36:16.377Z,96474.81
2023-05-05T02:38:42.686Z,96475.91
2023-05-05T02:41:08.983Z,96478.25
2023-05-05T02:43:35.304Z,96482.66
2023-05-05T02:46:01.689Z,96486.25
2023-05-05T02:48:28.018Z,96483.28
2023-05-05T02:50:54.344Z,96486.25
2023-05-05T02:53:20.649Z,96488.75
2023-05-05T02:55:46.965Z,96480.78
2023-05-05T02:58:13.308Z,96474.22
2023-05-05T03:00:39.609Z,96479.69
2023-05-05T03:03:06.036Z,96479.84
2023-05-05T03:05:32.440Z,96481.09
2023-05-05T03:07:58.736Z,96482.34
2023-05-05T03:10:25.031Z,96479.19
2023-05-05T03:12:51.413Z,96482.97
2023-05-05T03:15:17.781Z,96478.72
2023-05-05T03:17:44.150Z,96472.47
2023-05-05T03:20:10.522Z,96469.53
2023-05-05T03:22:36.818Z,96477.47
2023-05-05T03:25:03.113Z,96472.19
2023-05-05T03:27:29.446Z,96473.28
2023-05-05T03:29:55.865Z,96471.41
2023-05-05T03:32:22.174Z,96474.38
2023-05-05T03:34:48.472Z,96465.47
2023-05-05T03:37:14.763Z,96463.13
2023-05-05T03:39:41.084Z,96466.25
2023-05-05T03:42:07.418Z,96462.94
2023-05-05T03:44:33.731Z,96469.19
2023-05-05T03:47:00.040Z,96468.28
2023-05-05T03:49:26.370Z,96463.25
2023-05-05T03:51:52.669Z,96456.72
2023-05-05T03:54:18.971Z,96466.97
2023-05-05T03:56:48.063Z,96459.69
2023-05-05T03:59:14.347Z,96466.69
2023-05-05T04:01:40.641Z,96470.00
2023-05-05T04:04:07.015Z,96469.34
2023-05-05T04:06:33.351Z,96473.09
2023-05-05T04:08:59.668Z,96465.72
2023-05-05T04:11:26.028Z,96467.25
2023-05-05T04:13:52.348Z,96476.63
2023-05-05T04:16:18.749Z,96468.84
2023-05-05T04:18:45.123Z,96474.41
2023-05-05T04:21:11.420Z,96473.47
2023-05-05T04:23:37.727Z,96473.63
2023-05-05T04:26:04.046Z,96472.09
2023-05-05T04:28:33.302Z,96465.66
2023-05-05T04:30:59.607Z,96462.50
2023-05-05T04:33:26.002Z,96455.97
2023-05-05T04:35:52.321Z,96460.66
2023-05-05T04:38:18.744Z,96461.97
2023-05-05T04:40:45.109Z,96456.63
2023-05-05T04:43:11.427Z,96462.88
2023-05-05T04:45:37.728Z,96463.69
2023-05-05T04:48:04.091Z,96470.22
2023-05-05T04:50:30.441Z,96472.44
2023-05-05T04:52:56.737Z,96481.97
2023-05-05T04:55:23.050Z,96478.53
2023-05-05T04:57:49.355Z,96477.59
2023-05-05T05:00:15.657Z,96477.59
2023-05-05T05:02:42.023Z,96479.66
2023-05-05T05:05:08.393Z,96488.69
2023-05-05T05:07:34.718Z,96488.13
2023-05-05T05:10:01.057Z,96481.56
2023-05-05T05:12:27.372Z,96478.59
2023-05-05T05:14:53.695Z,96483.50
2023-05-05T05:17:20.551Z,96486.31
2023-05-05T05:19:46.838Z,96489.13
2023-05-05T05:22:13.140Z,96496.03
2023-05-05T05:24:39.462Z,96489.22
2023-05-05T05:27:06.814Z,96489.81
2023-05-05T05:29:34.886Z,96485.06
2023-05-05T05:32:01.235Z,96496.50
2023-05-05T05:34:27.558Z,96493.19
2023-05-05T05:36:53.856Z,96495.41
2023-05-05T05:39:20.184Z,96501.06
2023-05-05T05:41:46.502Z,96500.94
2023-05-05T05:44:12.803Z,96503.09
2023-05-05T05:46:39.174Z,96505.41
2023-05-05T05:49:05.835Z,96507.56
2023-05-05T05:51:32.144Z,96506.00
2023-05-05T05:53:58.983Z,96507.72
2023-05-05T05:56:25.388Z,96514.44
2023-05-05T05:58:51.697Z,96514.53
2023-05-05T06:01:18.033Z,96513.78
2023-05-05T06:03:44.398Z,96514.91
2023-05-05T06:06:10.758Z,96511.41
2023-05-05T06:08:37.106Z,96513.84
2023-05-05T06:11:04.535Z,96514.78
2023-05-05T06:13:30.851Z,96515.13
2023-05-05T06:15:57.182Z,96510.47
2023-05-05T06:18:23.714Z,96508.91
2023-05-05T06:20:50.070Z,96513.31
2023-05-05T06:23:16.452Z,96517.38
2023-05-05T06:25:42.767Z,96518.44
2023-05-05T06:28:09.074Z,96514.09
2023-05-05T06:30:35.417Z,96507.66
2023-05-05T06:33:01.809Z,96512.38
2023-05-05T06:35:28.183Z,96512.81
2023-05-05T06:37:54.587Z,96513.31
2023-05-05T06:40:21.002Z,96520.75
2023-05-05T06:42:47.333Z,96514.53
2023-05-05T06:45:13.841Z,96517.81
2023-05-05T06:47:40.166Z,96515.94
2023-05-05T06:50:06.993Z,96530.63
2023-05-05T06:52:33.553Z,96531.09
2023-05-05T06:54:59.851Z,96524.53
2023-05-05T06:57:26.162Z,96526.88
2023-05-05T06:59:52.487Z,96523.22
2023-05-05T07:02:18.800Z,96513.56
2023-05-05T07:04:45.092Z,96520.50
2023-05-05T07:07:11.401Z,96514.69
2023-05-05T07:09:37.689Z,96522.66
2023-05-05T07:12:03.989Z,96523.56
2023-05-05T07:14:30.301Z,96525.47
2023-05-05T07:16:56.704Z,96522.50
2023-05-05T07:19:23.109Z,96516.69
2023-05-05T07:21:49.429Z,96521.47
2023-05-05T07:24:15.897Z,96521.84
2023-05-05T07:26:42.210Z,96516.09
2023-05-05T07:29:08.562Z,96516.41
2023-05-05T07:31:34.883Z,96510.63
2023-05-05T07:34:01.368Z,96512.81
2023-05-05T07:36:27.723Z,96513.56
2023-05-05T07:38:54.138Z,96515.59
2023-05-05T07:41:20.453Z,96508.44
2023-05-05T07:43:46.778Z,96511.97
2023-05-05T07:46:13.121Z,96506.69
2023-05-05T07:48:39.450Z,96512.31
2023-05-05T07:51:05.779Z,96507.50
2023-05-05T07:53:32.085Z,96503.28
2023-05-05T07:55:58.390Z,96502.94
2023-05-05T07:58:24.711Z,96500.28
2023-05-05T08:00:51.016Z,96501.25
2023-05-05T08:03:17.334Z,96505.56
2023-05-05T08:05:43.689Z,96500.13
2023-05-05T08:08:10.009Z,96498.72
2023-05-05T08:10:36.333Z,96497.47
2023-05-05T08:13:02.702Z,96485.41
2023-05-05T08:15:29.006Z,96491.06
2023-05-05T08:17:55.480Z,96492.00
2023-05-05T08:20:21.880Z,96484.94
2023-05-05T08:22:48.191Z,96486.31
2023-05-05T08:25:14.497Z,96489.78
2023-05-05T08:27:40.835Z,96486.16
2023-05-05T08:30:07.140Z,96475.69
2023-05-05T08:32:33.498Z,96482.28
2023-05-05T08:34:59.881Z,96475.66
2023-05-05T08:37:26.184Z,96484.59
2023-05-05T08:39:52.482Z,96476.03
2023-05-05T08:42:32.812Z,96477.41
2023-05-05T08:45:03.084Z,96474.78
2023-05-05T08:47:29.442Z,96472.13
2023-05-05T08:49:55.778Z,96470.78
2023-05-05T08:52:22.102Z,96476.91
2023-05-05T08:54:48.437Z,96472.94
2023-05-05T08:57:14.746Z,96464.69
2023-05-05T08:59:41.061Z,96465.50
2023-05-05T09:02:07.425Z,96463.53
2023-05-05T09:04:33.800Z,96457.81
2023-05-05T09:07:00.172Z,96454.75
2023-05-05T09:09:26.491Z,96458.66
2023-05-05T09:11:52.796Z,96450.63
2023-05-05T09:14:19.109Z,96442.63
2023-05-05T09:16:45.459Z,96451.03
2023-05-05T09:19:11.791Z,96456.63
2023-05-05T09:21:38.116Z,96443.25
2023-05-05T09:24:08.123Z,96444.81
2023-05-05T09:26:35.309Z,96444.38
2023-05-05T09:29:01.612Z,96435.47
2023-05-05T09:31:28.033Z,96429.28
2023-05-05T09:33:54.422Z,96437.97
2023-05-05T09:36:20.718Z,96439.31
2023-05-05T09:38:47.085Z,96435.94
2023-05-05T09:41:13.384Z,96432.53
2023-05-05T09:43:39.691Z,96423.53
2023-05-05T09:46:08.903Z,96427.56
2023-05-05T09:48:35.282Z,96429.53
2023-05-05T09:51:01.629Z,96428.19
2023-05-05T09:53:27.953Z,96427.81
2023-05-05T09:55:54.275Z,96421.56
2023-05-05T09:58:20.670Z,96413.63
2023-05-05T10:00:48.245Z,96409.81
2023-05-05T10:03:14.537Z,96405.47
2023-05-05T10:05:40.844Z,96408.56
2023-05-05T10:08:07.167Z,96398.19
2023-05-05T10:10:33.459Z,96396.56
2023-05-05T10:12:59.791Z,96394.91
2023-05-05T10:15:26.144Z,96401.22
2023-05-05T10:18:06.047Z,96398.53
2023-05-05T10:20:34.247Z,96396.47
2023-05-05T10:23:00.571Z,96388.75
2023-05-05T10:25:26.900Z,96391.19
2023-05-05T10:27:53.214Z,96386.28
2023-05-05T10:30:19.537Z,96381.38
2023-05-05T10:33:00.461Z,96378.56
2023-05-05T10:35:32.118Z,96377.63
2023-05-05T10:37:58.404Z,96375.97
2023-05-05T10:40:24.722Z,96373.97
2023-05-05T10:42:51.179Z,96369.66
2023-05-05T10:45:17.502Z,96362.06
2023-05-05T10:47:44.032Z,96369.00
2023-05-05T10:50:10.647Z,96370.47
2023-05-05T10:52:37.072Z,96363.25
2023-05-05T10:55:03.371Z,96372.78
2023-05-05T10:57:30.513Z,96365.28
2023-05-05T10:59:56.943Z,96364.19
2023-05-05T11:02:23.368Z,96361.66
2023-05-05T11:04:49.755Z,96351.25
2023-05-05T11:07:16.133Z,96353.34
2023-05-05T11:09:42.404Z,96348.84
2023-05-05T11:12:08.706Z,96344.84
2023-05-05T11:14:34.991Z,96343.75
2023-05-05T11:17:01.380Z,96341.00
2023-05-05T11:19:27.718Z,96334.69
2023-05-05T11:21:54.013Z,96333.06
2023-05-05T11:24:20.299Z,96332.09
2023-05-05T11:26:46.606Z,96326.91
2023-05-05T11:29:12.894Z,96332.41
2023-05-05T11:31:39.295Z,96325.63
2023-05-05T11:34:05.692Z,96309.41
2023-05-05T11:36:32.003Z,96313.56
2023-05-05T11:38:58.307Z,96315.88
2023-05-05T11:41:24.625Z,96312.25
2023-05-05T11:43:50.941Z,96316.63
2023-05-05T11:46:17.297Z,96322.50
2023-05-05T11:48:43.689Z,96314.84
2023-05-05T11:51:09.991Z,96312.75
2023-05-05T11:53:36.300Z,96315.56
2023-05-05T11:56:02.634Z,96322.13
2023-05-05T11:58:28.925Z,96318.44
2023-05-05T12:00:55.239Z,96312.91
2023-05-05T12:03:21.718Z,96302.47
2023-05-05T12:05:48.098Z,96302.44
2023-05-05T12:08:14.392Z,96288.06
2023-05-05T12:10:40.734Z,96301.53
2023-05-05T12:13:07.057Z,96296.44
2023-05-05T12:15:33.373Z,96290.78
2023-05-05T12:18:02.451Z,96282.03
2023-05-05T12:20:29.470Z,96286.94
2023-05-05T12:22:55.763Z,96290.53
2023-05-05T12:25:22.111Z,96289.75
2023-05-05T12:27:48.402Z,96294.31
2023-05-05T12:30:14.735Z,96305.41
2023-05-05T12:32:41.106Z,96301.81
2023-05-05T12:35:07.442Z,96298.28
2023-05-05T12:37:33.752Z,96288.97
2023-05-05T12:40:00.129Z,96287.97
2023-05-05T12:42:26.461Z,96281.50
2023-05-05T12:44:52.766Z,96278.69
2023-05-05T12:47:19.083Z,96269.34
2023-05-05T12:49:45.406Z,96275.88
2023-05-05T12:52:11.718Z,96263.25
2023-05-05T12:54:38.105Z,96257.59
2023-05-05T12:57:04.397Z,96272.31
2023-05-05T12:59:30.713Z,96271.28
2023-05-05T13:01:57.164Z,96259.91
2023-05-05T13:04:23.574Z,96273.84
2023-05-05T13:06:49.929Z,96277.69
2023-05-05T13:09:16.265Z,96279.28
2023-05-05T13:11:42.567Z,96276.41
2023-05-05T13:14:08.882Z,96298.66
2023-05-05T13:16:35.187Z,96306.44
2023-05-05T13:19:01.480Z,96295.34
2023-05-05T13:21:27.780Z,96294.28
2023-05-05T13:23:55.965Z,96282.38
2023-05-05T13:26:27.811Z,96282.94
2023-05-05T13:28:54.125Z,96263.50
2023-05-05T13:31:20.434Z,96266.75
2023-05-05T13:33:46.764Z,96267.38
2023-05-05T13:36:13.081Z,96275.50
2023-05-05T13:38:39.432Z,96287.28
2023-05-05T13:41:05.737Z,96284.69
2023-05-05T13:43:32.049Z,96273.59
2023-05-05T13:46:08.696Z,96277.88
2023-05-05T13:48:38.767Z,96271.84
2023-05-05T13:51:05.167Z,96272.78
2023-05-05T13:53:31.484Z,96254.16
2023-05-05T13:55:57.974Z,96258.53
2023-05-05T13:58:24.274Z,96272.19
2023-05-05T14:00:50.628Z,96250.53
2023-05-05T14:03:17.001Z,96248.91
2023-05-05T14:05:43.305Z,96253.22
2023-05-05T14:08:09.615Z,96254.13
2023-05-05T14:10:35.935Z,96257.41
2023-05-05T14:13:02.287Z,96266.13
2023-05-05T14:15:28.626Z,96246.66
2023-05-05T14:17:54.980Z,96257.22
2023-05-05T14:20:21.299Z,96241.75
2023-05-05T14:22:49.301Z,96242.53
2023-05-05T14:25:15.793Z,96241.28
2023-05-05T14:27:42.074Z,96234.06
2023-05-05T14:30:08.370Z,96234.50
2023-05-05T14:32:34.813Z,96219.19
2023-05-05T14:35:01.105Z,96227.56
2023-05-05T14:37:27.402Z,96219.78
2023-05-05T14:39:53.733Z,96219.91
2023-05-05T14:42:20.046Z,96228.59
2023-05-05T14:44:46.334Z,96223.44
2023-05-05T14:47:12.653Z,96219.53
2023-05-05T14:49:38.948Z,96224.28
2023-05-05T14:52:05.248Z,96229.94
2023-05-05T14:54:31.678Z,96225.75
2023-05-05T14:56:58.016Z,96244.31
2023-05-05T14:59:24.323Z,96231.41
2023-05-05T15:01:50.709Z,96230.59
2023-05-05T15:04:17.030Z,96237.91
2023-05-05T15:06:43.323Z,96230.53
2023-05-05T15:09:09.670Z,96238.88
2023-05-05T15:11:35.973Z,96245.94
2023-05-05T15:14:02.338Z,96247.72
2023-05-05T15:16:28.728Z,96239.72
2023-05-05T15:18:55.062Z,96248.59
2023-05-05T15:21:21.359Z,96247.03
2023-05-05T15:23:47.663Z,96251.91
2023-05-05T15:26:13.949Z,96262.91
2023-05-05T15:28:40.241Z,96257.06
2023-05-05T15:31:06.562Z,96254.75
2023-05-05T15:33:32.876Z,96243.50
2023-05-05T15:35:59.189Z,96237.44
2023-05-05T15:38:25.498Z,96244.78
2023-05-05T15:40:51.794Z,96242.09
2023-05-05T15:43:18.086Z,96235.34
2023-05-05T15:45:44.399Z,96235.88
2023-05-05T15:48:10.762Z,96238.06
2023-05-05T15:50:37.068Z,96234.81
2023-05-05T15:53:03.384Z,96218.63
2023-05-05T15:55:29.692Z,96224.78
2023-05-05T15:57:55.997Z,96235.34
2023-05-05T16:00:22.387Z,96238.94
2023-05-05T16:02:48.876Z,96241.75
2023-05-05T16:05:15.239Z,96240.44
2023-05-05T16:07:41.606Z,96252.38
2023-05-05T16:10:07.895Z,96239.56
2023-05-05T16:12:34.236Z,96246.59
2023-05-05T16:15:00.593Z,96235.72
2023-05-05T16:17:26.942Z,96251.69
2023-05-05T16:19:53.242Z,96269.34
2023-05-05T16:22:19.571Z,96261.16
2023-05-05T16:24:45.874Z,96258.13
2023-05-05T16:27:12.170Z,96237.44
2023-05-05T16:29:38.515Z,96240.69
2023-05-05T16:32:04.881Z,96220.66
2023-05-05T16:34:31.316Z,96238.13
2023-05-05T16:36:57.649Z,96244.84
2023-05-05T16:39:23.943Z,96230.53
2023-05-05T16:41:50.263Z,96217.66
2023-05-05T16:44:16.577Z,96193.78
2023-05-05T16:46:42.935Z,96217.22
2023-05-05T16:49:09.234Z,96226.41
2023-05-05T16:51:35.547Z,96227.56
2023-05-05T16:54:01.842Z,96229.53
2023-05-05T16:56:28.133Z,96236.09
2023-05-05T16:58:54.447Z,96248.00
2023-05-05T17:01:20.821Z,96252.59
2023-05-05T17:03:47.174Z,96253.38
2023-05-05T17:06:13.497Z,96253.97
2023-05-05T17:08:39.790Z,96254.75
2023-05-05T17:11:06.059Z,96253.56
2023-05-05T17:13:32.429Z,96248.78
2023-05-05T17:15:58.726Z,96251.09
2023-05-05T17:18:25.066Z,96251.69
2023-05-05T17:20:51.420Z,96262.50
2023-05-05T17:23:17.766Z,96260.88
2023-05-05T17:25:44.082Z,96263.72
2023-05-05T17:28:10.405Z,96273.88
2023-05-05T17:30:36.703Z,96268.53
2023-05-05T17:33:03.039Z,96276.59
2023-05-05T17:35:29.398Z,96280.13
2023-05-05T17:37:55.713Z,96280.81
2023-05-05T17:40:22.004Z,96286.38
2023-05-05T17:42:48.328Z,96285.34
2023-05-05T17:45:14.642Z,96287.44
2023-05-05T17:47:40.964Z,96283.47
2023-05-05T17:50:07.299Z,96284.91
2023-05-05T17:52:33.615Z,96289.03
2023-05-05T17:54:59.941Z,96289.22
2023-05-05T17:57:26.600Z,96280.25
2023-05-05T17:59:52.937Z,96282.25
2023-05-05T18:02:19.326Z,96288.72
2023-05-05T18:04:45.867Z,96289.56
2023-05-05T18:07:12.194Z,96298.22
2023-05-05T18:09:38.513Z,96290.84
2023-05-05T18:12:04.858Z,96297.84
2023-05-05T18:14:31.168Z,96310.91
2023-05-05T18:16:57.469Z,96310.91
2023-05-05T18:19:23.835Z,96304.50
2023-05-05T18:21:50.149Z,96305.97
2023-05-05T18:24:20.443Z,96310.09
2023-05-05T18:26:47.031Z,96311.06
2023-05-05T18:29:13.322Z,96315.94
2023-05-05T18:31:39.677Z,96315.00
2023-05-05T18:34:06.027Z,96312.56
2023-05-05T18:36:32.332Z,96313.47
2023-05-05T18:38:58.634Z,96318.78
2023-05-05T18:41:24.975Z,96332.59
2023-05-05T18:43:51.276Z,96332.69
2023-05-05T18:46:17.613Z,96330.34
2023-05-05T18:48:43.986Z,96326.31
2023-05-05T18:51:10.287Z,96329.63
2023-05-05T18:53:36.603Z,96328.06
2023-05-05T18:56:02.921Z,96328.41
2023-05-05T18:58:29.223Z,96334.94
2023-05-05T19:00:55.547Z,96348.38
2023-05-05T19:03:21.895Z,96341.19
2023-05-05T19:05:48.220Z,96348.78
2023-05-05T19:08:14.520Z,96338.53
2023-05-05T19:10:40.820Z,96357.16
2023-05-05T19:13:07.163Z,96347.09
2023-05-05T19:15:33.475Z,96354.63
2023-05-05T19:17:59.820Z,96358.63
2023-05-05T19:20:26.138Z,96366.09
2023-05-05T19:22:52.457Z,96367.38
2023-05-05T19:25:18.838Z,96359.88
2023-05-05T19:27:45.139Z,96369.63
2023-05-05T19:30:11.438Z,96363.97
2023-05-05T19:32:37.796Z,96360.88
2023-05-05T19:35:04.100Z,96361.34
2023-05-05T19:37:30.394Z,96358.63
2023-05-05T19:39:56.715Z,96355.72
2023-05-05T19:42:23.009Z,96352.00
2023-05-05T19:44:49.330Z,96356.50
2023-05-05T19:47:15.643Z,96349.19
2023-05-05T19:49:41.952Z,96356.16
2023-05-05T19:52:08.264Z,96351.34
2023-05-05T19:54:34.585Z,96352.44
2023-05-05T19:57:00.902Z,96351.38
2023-05-05T19:59:27.204Z,96348.41
2023-05-05T20:01:53.581Z,96343.72
2023-05-05T20:04:20.188Z,96344.97
2023-05-05T20:06:46.508Z,96356.00
2023-05-05T20:09:12.838Z,96349.84
2023-05-05T20:11:39.146Z,96350.38
2023-05-05T20:14:05.547Z,96357.25
2023-05-05T20:16:31.953Z,96354.47
2023-05-05T20:18:58.381Z,96363.53
2023-05-05T20:21:24.684Z,96365.41
2023-05-05T20:23:51.022Z,96368.03
2023-05-05T20:26:17.305Z,96365.94
2023-05-05T20:28:45.279Z,96374.44
2023-05-05T20:31:11.902Z,96373.47
2023-05-05T20:33:38.225Z,96368.94
2023-05-05T20:36:04.532Z,96383.59
2023-05-05T20:38:30.855Z,96370.47
2023-05-05T20:40:57.155Z,96373.50
2023-05-05T20:43:23.456Z,96373.59
2023-05-05T20:45:49.767Z,96374.84
2023-05-05T20:48:16.080Z,96381.56
2023-05-05T20:50:42.371Z,96383.31
2023-05-05T20:53:08.691Z,96379.78
2023-05-05T20:55:35.011Z,96386.25
2023-05-05T20:58:01.329Z,96388.00
2023-05-05T21:00:27.649Z,96381.22
2023-05-05T21:02:54.029Z,96393.66
2023-05-05T21:05:20.427Z,96383.53
2023-05-05T21:07:46.754Z,96387.03
2023-05-05T21:10:13.152Z,96384.31
2023-05-05T21:12:39.495Z,96381.84
2023-05-05T21:15:05.866Z,96381.25
2023-05-05T21:17:32.214Z,96381.78
2023-05-05T21:19:58.535Z,96377.88
2023-05-05T21:22:24.843Z,96385.97
2023-05-05T21:24:51.172Z,96399.19
2023-05-05T21:27:17.488Z,96401.69
2023-05-05T21:29:43.798Z,96389.31
2023-05-05T21:32:10.113Z,96388.44
2023-05-05T21:34:36.454Z,96391.53
2023-05-05T21:37:02.814Z,96380.94
2023-05-05T21:39:29.116Z,96389.88
2023-05-05T21:41:55.409Z,96382.66
2023-05-05T21:44:21.732Z,96374.69
2023-05-05T21:46:48.094Z,96379.56
2023-05-05T21:49:14.541Z,96375.28
2023-05-05T21:51:40.866Z,96372.25
2023-05-05T21:54:07.172Z,96377.66
2023-05-05T21:56:33.467Z,96386.31
2023-05-05T21:58:59.796Z,96381.78
2023-05-05T22:01:26.095Z,96378.38
2023-05-05T22:03:52.572Z,96373.09
2023-05-05T22:06:19.017Z,96367.75
2023-05-05T22:08:45.315Z,96379.38
2023-05-05T22:11:11.598Z,96372.59
2023-05-05T22:13:37.927Z,96379.56
2023-05-05T22:16:04.265Z,96384.09
2023-05-05T22:18:30.581Z,96391.91
2023-05-05T22:20:56.901Z,96392.06
2023-05-05T22:23:23.212Z,96392.88
2023-05-05T22:25:49.508Z,96398.38
2023-05-05T22:28:15.831Z,96401.56
2023-05-05T22:30:42.138Z,96410.16
2023-05-05T22:33:08.644Z,96416.03
2023-05-05T22:35:35.037Z,96411.47
2023-05-05T22:38:01.344Z,96408.56
2023-05-05T22:40:27.639Z,96388.81
2023-05-05T22:42:54.009Z,96375.00
2023-05-05T22:45:20.304Z,96373.44
2023-05-05T22:47:46.661Z,96377.06
2023-05-05T22:50:12.995Z,96381.66
2023-05-05T22:52:39.315Z,96375.56
2023-05-05T22:55:05.628Z,96378.53
2023-05-05T22:57:31.942Z,96369.84
2023-05-05T22:59:58.230Z,96369.47
2023-05-05T23:02:24.534Z,96376.00
2023-05-05T23:04:50.895Z,96372.47
2023-05-05T23:07:17.252Z,96373.31
2023-05-05T23:09:43.537Z,96385.56
2023-05-05T23:12:09.897Z,96389.09
2023-05-05T23:14:36.196Z,96383.16
2023-05-05T23:17:02.584Z,96374.25
2023-05-05T23:19:29.029Z,96377.94
2023-05-05T23:21:55.333Z,96385.03
2023-05-05T23:24:21.648Z,96385.72
2023-05-05T23:26:48.010Z,96383.19
2023-05-05T23:29:14.372Z,96388.63
2023-05-05T23:31:40.659Z,96385.84
2023-05-05T23:34:06.965Z,96387.84
2023-05-05T23:36:33.257Z,96392.53
2023-05-05T23:38:59.553Z,96388.38
2023-05-05T23:41:25.865Z,96397.78
2023-05-05T23:43:52.161Z,96387.16
2023-05-05T23:46:18.516Z,96387.91
2023-05-05T23:48:44.881Z,96386.38
2023-05-05T23:51:11.183Z,96385.59
2023-05-05T23:53:37.477Z,96390.16
2023-05-05T23:56:03.782Z,96381.53
2023-05-05T23:58:30.096Z,96382.31
